Sally Ann C — MPXF5 — position and weather

sailwx.info

Track history (hours):
 
Tides and Currents Weather Stations Pressure Air Temp Water Temp Dewpoint Dewpoint Depression Visibility Wind Speed Wind Dir Waves Ship Positions

Sally Ann C

Last reported at 2018-Jan-08 21:58 UTC. Time now 2018-Jan-20 01:43 UTC.
Position N 09°37' W 079°57'.
Warning: this ship's position is 11 days out of date.

Length 137 m; draft 5.2 m.

Type: Cargo ship. MMSI: 232977000.

Date/timePositionNaut miles runAvg speedWind from/ knotsBaromVisibWave heightAir tempDewpointWater temp
2018-Jan-08 21:58N 09°37' W 079°57'911.9
2018-Jan-08 21:15N 09°29' W 079°57'313.0
2018-Jan-08 21:00N 09°26' W 079°58'2 4.3
2018-Jan-08 20:27N 09°24' W 079°56'0 0.1
2018-Jan-08 20:00N 09°24' W 079°56'0 0.0
2018-Jan-08 19:30N 09°24' W 079°56'0 0.0
2018-Jan-08 19:00N 09°24' W 079°56'0 0.0
2018-Jan-08 18:30N 09°24' W 079°56'0 0.0
2018-Jan-08 18:00N 09°24' W 079°56'0 0.0
2018-Jan-08 17:30N 09°24' W 079°56'0 0.0
2018-Jan-08 17:00N 09°24' W 079°56'0 0.0
2018-Jan-08 16:30N 09°24' W 079°56'0 0.0
2018-Jan-08 16:00N 09°24' W 079°56'0 0.0
2018-Jan-08 15:30N 09°24' W 079°56'0 0.0
2018-Jan-08 15:00N 09°24' W 079°56'0 0.0
2018-Jan-08 14:30N 09°24' W 079°56'0 0.0
2018-Jan-08 14:00N 09°24' W 079°56'0 0.0
2018-Jan-08 13:30N 09°24' W 079°56'0 0.0
2018-Jan-08 13:00N 09°24' W 079°56'0 0.0
2018-Jan-08 12:30N 09°24' W 079°56'0 0.0
2018-Jan-08 12:00N 09°24' W 079°56'0 0.0
2018-Jan-08 11:30N 09°24' W 079°56'0 0.0
2018-Jan-08 11:00N 09°24' W 079°56'0 0.0
2018-Jan-08 10:30N 09°24' W 079°56'0 0.0
2018-Jan-08 10:00N 09°24' W 079°56'0 0.0
2018-Jan-08 09:30N 09°24' W 079°56'0 0.0
2018-Jan-08 09:00N 09°24' W 079°56'0 0.0
2018-Jan-08 08:30N 09°24' W 079°56'0 0.1
2018-Jan-08 08:00N 09°24' W 079°56'0 0.1
2018-Jan-08 07:30N 09°24' W 079°56'2 3.8
2018-Jan-08 07:00N 09°23' W 079°55'4 8.9
2018-Jan-08 06:30N 09°18' W 079°55'2 3.8
2018-Jan-08 06:00N 09°17' W 079°55'0 0.4
2018-Jan-08 05:30N 09°16' W 079°55'0 0.7
2018-Jan-08 05:00N 09°16' W 079°55'1 2.7
2018-Jan-08 04:30N 09°15' W 079°55'  
2017-Dec-29 23:18N 09°11' W 079°52'2 6.2
2017-Dec-29 22:58N 09°12' W 079°54'3 6.1
2017-Dec-29 22:30N 09°14' W 079°55'2 3.7
2017-Dec-29 22:00N 09°16' W 079°55'  
Track history (hours):
 
Tides and Currents Weather Stations Pressure Air Temp Water Temp Dewpoint Dewpoint Depression Visibility Wind Speed Wind Dir Waves Ship Positions

Sally Ann C

Last reported at 2018-Jan-08 21:58 UTC. Time now 2018-Jan-20 01:43 UTC.
Position N 09°37' W 079°57'.
Warning: this ship's position is 11 days out of date.

Length 137 m; draft 5.2 m.

Type: Cargo ship. MMSI: 232977000.

Date/timePositionNaut miles runAvg speedWind from/ knotsBaromVisibWave heightAir tempDewpointWater temp
2018-Jan-08 21:58N 09°37' W 079°57'911.9
2018-Jan-08 21:15N 09°29' W 079°57'313.0
2018-Jan-08 21:00N 09°26' W 079°58'2 4.3
2018-Jan-08 20:27N 09°24' W 079°56'0 0.1
2018-Jan-08 20:00N 09°24' W 079°56'0 0.0
2018-Jan-08 19:30N 09°24' W 079°56'0 0.0
2018-Jan-08 19:00N 09°24' W 079°56'0 0.0
2018-Jan-08 18:30N 09°24' W 079°56'0 0.0
2018-Jan-08 18:00N 09°24' W 079°56'0 0.0
2018-Jan-08 17:30N 09°24' W 079°56'0 0.0
2018-Jan-08 17:00N 09°24' W 079°56'0 0.0
2018-Jan-08 16:30N 09°24' W 079°56'0 0.0
2018-Jan-08 16:00N 09°24' W 079°56'0 0.0
2018-Jan-08 15:30N 09°24' W 079°56'0 0.0
2018-Jan-08 15:00N 09°24' W 079°56'0 0.0
2018-Jan-08 14:30N 09°24' W 079°56'0 0.0
2018-Jan-08 14:00N 09°24' W 079°56'0 0.0
2018-Jan-08 13:30N 09°24' W 079°56'0 0.0
2018-Jan-08 13:00N 09°24' W 079°56'0 0.0
2018-Jan-08 12:30N 09°24' W 079°56'0 0.0
2018-Jan-08 12:00N 09°24' W 079°56'0 0.0
2018-Jan-08 11:30N 09°24' W 079°56'0 0.0
2018-Jan-08 11:00N 09°24' W 079°56'0 0.0
2018-Jan-08 10:30N 09°24' W 079°56'0 0.0
2018-Jan-08 10:00N 09°24' W 079°56'0 0.0
2018-Jan-08 09:30N 09°24' W 079°56'0 0.0
2018-Jan-08 09:00N 09°24' W 079°56'0 0.0
2018-Jan-08 08:30N 09°24' W 079°56'0 0.1
2018-Jan-08 08:00N 09°24' W 079°56'0 0.1
2018-Jan-08 07:30N 09°24' W 079°56'2 3.8
2018-Jan-08 07:00N 09°23' W 079°55'4 8.9
2018-Jan-08 06:30N 09°18' W 079°55'2 3.8
2018-Jan-08 06:00N 09°17' W 079°55'0 0.4
2018-Jan-08 05:30N 09°16' W 079°55'0 0.7
2018-Jan-08 05:00N 09°16' W 079°55'1 2.7
2018-Jan-08 04:30N 09°15' W 079°55'  
2017-Dec-29 23:18N 09°11' W 079°52'2 6.2
2017-Dec-29 22:58N 09°12' W 079°54'3 6.1
2017-Dec-29 22:30N 09°14' W 079°55'2 3.7
2017-Dec-29 22:00N 09°16' W 079°55'  

Dump ship's entire track history